Time;durP1;ratioP1;P1;durP2;ratioP2;P2;SDS_P1;SDS_P2;PMS_P1;PMS_P2;Temp;Humidity;BMP_temperature;BMP_pressure;BME280_temperature;BME280_humidity;BME280_pressure;Samples;Min_cycle;Max_cycle;Signal;HPM_P1;HPM_P2
2022/10/18 00:00:03;;;;;;;23.98;16.60;;;16.40;99.90;;;;;;5088615;28;20063;-42
2022/10/18 00:02:29;;;;;;;23.95;16.92;;;16.40;99.90;;;;;;5088484;28;20062;-44
2022/10/18 00:04:54;;;;;;;25.85;16.85;;;16.50;99.90;;;;;;5089626;28;20028;-44
2022/10/18 00:07:20;;;;;;;25.40;14.55;;;16.40;99.90;;;;;;5088459;28;20099;-45
2022/10/18 00:09:45;;;;;;;21.35;14.93;;;16.40;99.90;;;;;;5088129;28;20063;-45
2022/10/18 00:12:11;;;;;;;18.35;12.93;;;16.40;99.90;;;;;;5087831;28;20048;-46
2022/10/18 00:14:36;;;;;;;16.98;12.00;;;16.40;99.90;;;;;;5088687;28;20031;-43
2022/10/18 00:17:02;;;;;;;16.52;12.93;;;16.40;99.90;;;;;;5088181;28;20038;-45
2022/10/18 00:19:27;;;;;;;22.05;12.60;;;16.40;99.90;;;;;;5088168;28;20035;-45
2022/10/18 00:21:52;;;;;;;17.48;13.15;;;16.40;99.90;;;;;;5087893;28;20043;-44
2022/10/18 00:24:18;;;;;;;17.73;12.60;;;16.30;99.90;;;;;;5087778;28;20032;-47
2022/10/18 00:26:43;;;;;;;18.90;12.15;;;16.30;99.90;;;;;;5089705;28;20036;-43
2022/10/18 00:29:13;;;;;;;16.45;12.48;;;16.30;99.90;;;;;;5092049;28;20096;-45
2022/10/18 00:31:38;;;;;;;15.88;12.10;;;16.30;99.90;;;;;;5091185;28;20028;-46
2022/10/18 00:34:14;;;;;;;18.17;11.75;;;16.30;99.90;;;;;;5094844;28;20072;-41
2022/10/18 00:36:40;;;;;;;15.07;12.30;;;16.20;99.90;;;;;;5090485;28;20541;-41
2022/10/18 00:39:07;;;;;;;13.93;11.38;;;16.20;99.90;;;;;;5090257;28;20110;-41
2022/10/18 00:41:34;;;;;;;16.77;11.98;;;16.20;99.90;;;;;;5091179;28;20059;-42
2022/10/18 00:44:12;;;;;;;17.90;11.15;;;16.20;99.90;;;;;;5090383;28;20024;-41
2022/10/18 00:46:44;;;;;;;11.73;10.40;;;16.10;99.90;;;;;;5091972;28;20482;-43
2022/10/18 00:49:17;;;;;;;14.23;11.52;;;16.10;99.90;;;;;;5072788;28;20064;-42
2022/10/18 00:51:48;;;;;;;13.23;10.75;;;16.10;99.90;;;;;;5091190;28;20024;-43
2022/10/18 00:54:16;;;;;;;15.13;10.80;;;16.10;99.90;;;;;;5090116;28;20036;-42
2022/10/18 00:56:43;;;;;;;21.73;12.50;;;16.00;99.90;;;;;;5090962;28;20024;-44
2022/10/18 00:59:10;;;;;;;15.65;12.30;;;16.00;99.90;;;;;;5091855;28;20016;-43
2022/10/18 01:01:36;;;;;;;14.27;11.82;;;16.00;99.90;;;;;;5088994;28;20074;-45
2022/10/18 01:04:01;;;;;;;13.88;10.77;;;16.00;99.90;;;;;;5095046;28;20270;-43
2022/10/18 01:06:28;;;;;;;11.45;10.10;;;15.90;99.90;;;;;;5093061;28;20103;-46
2022/10/18 01:09:24;;;;;;;11.27;9.88;;;15.90;99.90;;;;;;5091485;28;20024;-43
2022/10/18 01:12:23;;;;;;;20.05;12.10;;;15.90;99.90;;;;;;5092413;28;20020;-43
2022/10/18 01:15:04;;;;;;;13.93;10.88;;;15.90;99.90;;;;;;5086026;28;20029;-44
2022/10/18 01:18:00;;;;;;;12.10;10.65;;;15.90;99.90;;;;;;5081332;28;20047;-45
2022/10/18 01:21:06;;;;;;;13.95;11.82;;;15.90;99.90;;;;;;5089261;28;20034;-44
2022/10/18 01:24:10;;;;;;;13.63;11.20;;;15.90;99.90;;;;;;5091997;28;20027;-43
2022/10/18 01:26:52;;;;;;;22.90;16.55;;;15.90;99.90;;;;;;5092597;28;20028;-42
2022/10/18 01:30:02;;;;;;;21.17;16.35;;;16.00;99.90;;;;;;5092146;28;20111;-44
2022/10/18 01:32:33;;;;;;;24.08;17.75;;;15.90;99.90;;;;;;5096356;28;20016;-45
2022/10/18 01:35:05;;;;;;;24.40;17.88;;;15.90;99.90;;;;;;5083649;28;20020;-42
2022/10/18 01:37:33;;;;;;;30.10;21.13;;;15.90;99.90;;;;;;5081347;28;20116;-42
2022/10/18 01:40:05;;;;;;;30.10;20.83;;;15.90;99.90;;;;;;5080396;28;20039;-43
2022/10/18 01:42:31;;;;;;;26.25;19.10;;;15.90;99.90;;;;;;5078007;28;20035;-42
2022/10/18 01:44:58;;;;;;;30.73;22.15;;;16.00;99.90;;;;;;5080984;28;20044;-42
2022/10/18 01:47:25;;;;;;;37.85;23.95;;;16.00;99.90;;;;;;5081937;28;20389;-42
2022/10/18 01:50:01;;;;;;;31.92;21.38;;;15.90;99.90;;;;;;5079991;28;20454;-42
2022/10/18 01:52:27;;;;;;;31.67;21.10;;;15.90;99.90;;;;;;5078875;28;20024;-44
2022/10/18 01:54:54;;;;;;;33.38;22.83;;;15.90;99.90;;;;;;5082610;28;20024;-42
2022/10/18 01:57:27;;;;;;;35.65;23.80;;;15.90;99.90;;;;;;5083965;28;20096;-44
2022/10/18 01:59:53;;;;;;;27.50;20.05;;;15.90;99.90;;;;;;5090387;28;20035;-45
2022/10/18 02:02:21;;;;;;;28.33;19.90;;;15.90;99.90;;;;;;5081431;28;20032;-42
2022/10/18 02:05:02;;;;;;;26.48;19.90;;;15.90;99.90;;;;;;5080977;28;20055;-43
2022/10/18 02:07:32;;;;;;;;;;;15.90;99.90;;;;;;5080351;28;20017;-44
2022/10/18 02:10:15;;;;;;;27.10;19.50;;;15.90;99.90;;;;;;5078697;28;19973;-41
2022/10/18 02:12:44;;;;;;;27.48;19.65;;;15.90;99.90;;;;;;5078929;28;20494;-42
2022/10/18 02:15:13;;;;;;;21.83;17.15;;;15.90;99.90;;;;;;5079890;28;20046;-42
2022/10/18 02:17:39;;;;;;;28.27;21.65;;;15.80;99.90;;;;;;5081140;28;20035;-42
2022/10/18 02:20:07;;;;;;;28.17;20.85;;;15.80;99.90;;;;;;5079580;28;20488;-43
2022/10/18 02:22:35;;;;;;;22.73;16.98;;;15.80;99.90;;;;;;5081730;28;20448;-42
2022/10/18 02:25:04;;;;;;;21.63;16.27;;;15.80;99.90;;;;;;5091065;28;20017;-45
2022/10/18 02:27:30;;;;;;;23.08;17.85;;;15.80;99.90;;;;;;5091368;28;20020;-45
2022/10/18 02:29:55;;;;;;;20.38;15.82;;;15.80;99.90;;;;;;5091338;28;20058;-44
2022/10/18 02:32:40;;;;;;;23.55;16.02;;;15.70;99.90;;;;;;5095350;28;20381;-47
2022/10/18 02:35:24;;;;;;;23.30;16.73;;;15.70;99.90;;;;;;5108119;28;20039;-43
2022/10/18 02:37:51;;;;;;;22.58;16.77;;;15.70;99.90;;;;;;5111305;28;20031;-44
2022/10/18 02:40:18;;;;;;;28.15;20.25;;;15.70;99.90;;;;;;5111066;28;20114;-43
2022/10/18 02:42:46;;;;;;;27.88;16.88;;;15.70;99.90;;;;;;5109886;28;20493;-43
2022/10/18 02:45:12;;;;;;;22.20;15.93;;;15.70;99.90;;;;;;5111561;28;20513;-46
2022/10/18 02:47:38;;;;;;;26.77;16.92;;;15.70;99.90;;;;;;5111372;28;20027;-43
2022/10/18 02:50:04;;;;;;;29.80;21.30;;;15.60;99.90;;;;;;5110970;28;20038;-42
2022/10/18 02:52:29;;;;;;;29.65;21.23;;;15.70;99.90;;;;;;5110547;28;20027;-45
2022/10/18 02:54:55;;;;;;;41.92;27.08;;;15.70;99.90;;;;;;5110799;28;20077;-46
2022/10/18 02:57:20;;;;;;;32.05;21.75;;;15.70;99.90;;;;;;5111016;28;20113;-43
2022/10/18 02:59:45;;;;;;;33.15;22.25;;;15.70;99.90;;;;;;5111186;28;20059;-43
2022/10/18 03:02:11;;;;;;;31.05;22.15;;;15.70;99.90;;;;;;5096605;28;20423;-43
2022/10/18 03:04:36;;;;;;;47.17;28.30;;;15.70;99.90;;;;;;5104382;28;20023;-46
2022/10/18 03:07:02;;;;;;;38.55;24.23;;;15.60;99.90;;;;;;5110954;28;20448;-43
2022/10/18 03:09:28;;;;;;;38.95;23.65;;;15.60;99.90;;;;;;5110836;28;20085;-43
2022/10/18 03:11:53;;;;;;;32.22;22.60;;;15.70;99.90;;;;;;5110274;28;20020;-43
2022/10/18 03:14:19;;;;;;;26.77;20.08;;;15.70;99.90;;;;;;5110628;27;20066;-44
2022/10/18 03:16:44;;;;;;;24.08;18.95;;;15.60;99.90;;;;;;5109436;28;20115;-44
2022/10/18 03:19:10;;;;;;;26.30;18.17;;;15.60;99.90;;;;;;5110694;28;20031;-46
2022/10/18 03:21:35;;;;;;;24.70;18.13;;;15.60;99.90;;;;;;5110038;28;20488;-42
2022/10/18 03:24:02;;;;;;;24.25;17.70;;;15.60;99.90;;;;;;5110517;28;20036;-42
2022/10/18 03:26:27;;;;;;;27.20;18.80;;;15.60;99.90;;;;;;5110480;28;20461;-42
2022/10/18 03:28:53;;;;;;;29.45;18.08;;;15.60;99.90;;;;;;5110463;28;20027;-43
2022/10/18 03:31:18;;;;;;;24.13;17.40;;;15.60;99.90;;;;;;5102899;28;20525;-44
2022/10/18 03:33:44;;;;;;;25.48;17.52;;;15.60;99.90;;;;;;5101831;28;20024;-42
2022/10/18 03:36:10;;;;;;;28.23;19.77;;;15.60;99.90;;;;;;5110414;28;20105;-43
2022/10/18 03:38:36;;;;;;;38.97;23.60;;;15.60;99.90;;;;;;5110774;28;20038;-43
2022/10/18 03:41:01;;;;;;;43.88;27.83;;;15.60;99.90;;;;;;5110354;28;20480;-43
2022/10/18 03:43:27;;;;;;;39.85;26.92;;;15.60;99.90;;;;;;5109708;28;20023;-44
2022/10/18 03:45:52;;;;;;;50.30;30.88;;;15.60;99.90;;;;;;5110129;28;20234;-44
2022/10/18 03:48:18;;;;;;;45.25;27.65;;;15.60;99.90;;;;;;5110340;28;20107;-44
2022/10/18 03:50:43;;;;;;;42.42;25.42;;;15.60;99.90;;;;;;5109859;28;20046;-42
2022/10/18 03:53:09;;;;;;;43.70;25.70;;;15.60;99.90;;;;;;5109604;28;20028;-44
2022/10/18 03:55:36;;;;;;;39.22;25.50;;;15.60;99.90;;;;;;5110165;28;20103;-43
2022/10/18 03:58:01;;;;;;;37.90;23.95;;;15.60;99.90;;;;;;5110150;28;20034;-41
2022/10/18 04:00:27;;;;;;;39.28;25.92;;;15.60;99.90;;;;;;5110093;28;20035;-42
2022/10/18 04:02:52;;;;;;;35.28;21.80;;;15.60;99.90;;;;;;5094494;28;20255;-41
2022/10/18 04:05:18;;;;;;;41.92;25.88;;;15.60;99.90;;;;;;5109351;28;20092;-42
2022/10/18 04:07:43;;;;;;;40.10;24.75;;;15.60;99.90;;;;;;5110184;28;20022;-41
2022/10/18 04:10:09;;;;;;;36.60;23.42;;;15.60;99.90;;;;;;5109987;28;20020;-42
2022/10/18 04:12:34;;;;;;;38.72;23.88;;;15.60;99.90;;;;;;5110051;28;20278;-42
2022/10/18 04:15:00;;;;;;;32.47;22.08;;;15.60;99.90;;;;;;5110136;28;20545;-42
2022/10/18 04:17:25;;;;;;;31.40;21.98;;;15.60;99.90;;;;;;5109920;28;20024;-43
2022/10/18 04:19:51;;;;;;;36.55;24.10;;;15.60;99.90;;;;;;5109666;28;20028;-44
2022/10/18 04:22:16;;;;;;;55.83;30.33;;;15.60;99.90;;;;;;5109916;28;20035;-43
2022/10/18 04:24:42;;;;;;;46.92;28.33;;;15.60;99.90;;;;;;5109988;28;20110;-44
2022/10/18 04:27:08;;;;;;;40.63;25.35;;;15.50;99.90;;;;;;5110072;28;20020;-46
2022/10/18 04:29:33;;;;;;;34.92;22.05;;;15.50;99.90;;;;;;5108700;28;20122;-43
2022/10/18 04:31:59;;;;;;;29.50;20.90;;;15.60;99.90;;;;;;5101563;28;20081;-42
2022/10/18 04:34:25;;;;;;;31.90;20.80;;;15.60;99.90;;;;;;5101614;28;20027;-42
2022/10/18 04:36:50;;;;;;;47.42;28.95;;;15.60;99.90;;;;;;5074881;28;20025;-43
2022/10/18 04:39:16;;;;;;;35.08;23.27;;;15.60;99.90;;;;;;5067523;28;20025;-44
2022/10/18 04:41:41;;;;;;;49.72;29.13;;;15.60;99.90;;;;;;5066973;28;20033;-43
2022/10/18 04:44:07;;;;;;;31.92;21.00;;;15.60;99.90;;;;;;5068037;28;20028;-42
2022/10/18 04:46:33;;;;;;;32.03;20.70;;;15.60;99.90;;;;;;5067692;28;20414;-43
2022/10/18 04:49:00;;;;;;;34.20;22.83;;;15.60;99.90;;;;;;5067560;28;20017;-44
2022/10/18 04:51:27;;;;;;;29.42;21.13;;;15.60;99.90;;;;;;5066189;28;20536;-42
2022/10/18 04:53:52;;;;;;;43.00;25.80;;;15.60;99.90;;;;;;5069329;28;20461;-43
2022/10/18 04:56:18;;;;;;;58.10;34.03;;;15.60;99.90;;;;;;5068936;28;20063;-44
2022/10/18 04:58:43;;;;;;;43.70;28.92;;;15.60;99.90;;;;;;5068939;28;20109;-45
2022/10/18 05:01:09;;;;;;;45.38;25.48;;;15.60;99.90;;;;;;5072600;28;20064;-42
2022/10/18 05:03:34;;;;;;;35.45;22.55;;;15.60;99.90;;;;;;5100539;28;20023;-43
2022/10/18 05:06:00;;;;;;;40.20;25.80;;;15.60;99.90;;;;;;5109434;28;20453;-44
2022/10/18 05:08:26;;;;;;;38.03;24.65;;;15.60;99.90;;;;;;5104270;28;20123;-43
2022/10/18 05:10:51;;;;;;;27.38;18.95;;;15.60;99.90;;;;;;5074193;28;20040;-44
2022/10/18 05:13:17;;;;;;;30.75;20.60;;;15.60;99.90;;;;;;5079883;28;20032;-46
2022/10/18 05:15:42;;;;;;;33.03;21.85;;;15.60;99.90;;;;;;5077723;28;20067;-46
2022/10/18 05:18:08;;;;;;;28.48;19.10;;;15.60;99.90;;;;;;5076915;28;20528;-43
2022/10/18 05:20:33;;;;;;;33.45;20.58;;;15.50;99.90;;;;;;5088521;28;20040;-43
2022/10/18 05:22:58;;;;;;;32.70;20.70;;;15.50;99.90;;;;;;5086005;28;20536;-42
2022/10/18 05:25:24;;;;;;;39.00;23.98;;;15.50;99.90;;;;;;5087350;28;20058;-43
2022/10/18 05:27:49;;;;;;;35.20;24.25;;;15.50;99.90;;;;;;5086772;28;20063;-46
2022/10/18 05:30:15;;;;;;;38.05;23.83;;;15.60;99.90;;;;;;5084704;28;20024;-43
2022/10/18 05:32:41;;;;;;;43.65;26.70;;;15.50;99.90;;;;;;5084470;28;20040;-45
2022/10/18 05:35:06;;;;;;;33.67;23.02;;;15.60;99.90;;;;;;5083775;28;20031;-44
2022/10/18 05:37:32;;;;;;;33.97;22.92;;;15.50;99.90;;;;;;5082995;28;20430;-43
2022/10/18 05:39:57;;;;;;;40.53;24.52;;;15.60;99.90;;;;;;5080626;28;20024;-45
2022/10/18 05:42:23;;;;;;;35.95;24.08;;;15.60;99.90;;;;;;5081571;28;20104;-42
2022/10/18 05:44:49;;;;;;;50.00;30.27;;;15.60;99.90;;;;;;5081009;28;20060;-43
2022/10/18 05:47:14;;;;;;;42.78;27.40;;;15.60;99.90;;;;;;5081100;28;20108;-44
2022/10/18 05:49:40;;;;;;;39.13;26.20;;;15.70;99.90;;;;;;5083259;28;20020;-44
2022/10/18 05:52:05;;;;;;;44.15;26.02;;;15.70;99.90;;;;;;5080180;28;20013;-47
2022/10/18 05:54:31;;;;;;;51.60;28.88;;;15.70;99.90;;;;;;5080988;28;20028;-44
2022/10/18 05:56:56;;;;;;;50.85;29.08;;;15.70;99.90;;;;;;5077401;28;20085;-46
2022/10/18 05:59:22;;;;;;;46.35;28.80;;;15.70;99.90;;;;;;5086388;28;20158;-47
2022/10/18 06:01:47;;;;;;;54.65;31.63;;;15.60;99.90;;;;;;5092431;28;20020;-46
2022/10/18 06:04:13;;;;;;;43.83;27.85;;;15.60;99.90;;;;;;5088293;28;20043;-43
2022/10/18 06:06:38;;;;;;;48.53;29.52;;;15.60;99.90;;;;;;5079108;28;20113;-44
2022/10/18 06:09:05;;;;;;;47.92;29.25;;;15.60;99.90;;;;;;5081275;28;20132;-42
2022/10/18 06:11:31;;;;;;;51.42;30.80;;;15.60;99.90;;;;;;5079284;28;20052;-43
2022/10/18 06:13:57;;;;;;;47.42;29.08;;;15.60;99.90;;;;;;5082284;28;20100;-43
2022/10/18 06:16:23;;;;;;;63.20;34.45;;;15.60;99.90;;;;;;5091838;28;20255;-46
2022/10/18 06:18:51;;;;;;;45.00;28.65;;;15.60;99.90;;;;;;5091765;28;20031;-45
2022/10/18 06:21:17;;;;;;;45.13;27.55;;;15.60;99.90;;;;;;5091135;28;20028;-41
2022/10/18 06:23:46;;;;;;;41.13;27.33;;;15.60;99.90;;;;;;5091016;28;20032;-43
2022/10/18 06:26:12;;;;;;;45.50;28.20;;;15.60;99.90;;;;;;5091121;28;20125;-41
2022/10/18 06:28:37;;;;;;;44.75;28.35;;;15.60;99.90;;;;;;5091265;28;20030;-43
2022/10/18 06:31:04;;;;;;;52.45;31.10;;;15.60;99.90;;;;;;5091720;28;20062;-43
2022/10/18 06:33:31;;;;;;;44.78;26.45;;;15.50;99.90;;;;;;5090797;28;20111;-44
2022/10/18 06:36:04;;;;;;;66.32;36.60;;;15.50;99.90;;;;;;5090927;28;20400;-42
2022/10/18 06:38:30;;;;;;;59.88;33.72;;;15.50;99.90;;;;;;5089511;28;20024;-45
2022/10/18 06:40:56;;;;;;;59.80;35.47;;;15.50;99.90;;;;;;5089937;28;20051;-42
2022/10/18 06:43:23;;;;;;;69.95;37.47;;;15.50;99.90;;;;;;5069959;28;20401;-44
2022/10/18 06:45:49;;;;;;;58.30;32.35;;;15.50;99.90;;;;;;5070631;28;20036;-44
2022/10/18 06:48:16;;;;;;;60.45;33.58;;;15.50;99.90;;;;;;5070825;28;20035;-45
2022/10/18 06:50:42;;;;;;;59.35;33.30;;;15.50;99.90;;;;;;5071138;28;20067;-45
2022/10/18 06:53:08;;;;;;;73.22;38.47;;;15.50;99.90;;;;;;5070814;28;20036;-45
2022/10/18 06:55:34;;;;;;;62.10;34.10;;;15.50;99.90;;;;;;5080950;28;20134;-43
2022/10/18 06:58:00;;;;;;;51.58;31.50;;;15.50;99.90;;;;;;5077771;28;20291;-45
2022/10/18 07:00:26;;;;;;;57.22;31.08;;;15.50;99.90;;;;;;5076220;28;20032;-42
2022/10/18 07:02:51;;;;;;;66.93;34.42;;;15.50;99.90;;;;;;5070443;28;20131;-43
2022/10/18 07:05:17;;;;;;;72.28;35.47;;;15.50;99.90;;;;;;5070593;28;20540;-42
2022/10/18 07:07:43;;;;;;;57.58;32.97;;;15.50;99.90;;;;;;5070750;28;20021;-44
2022/10/18 07:10:09;;;;;;;67.93;33.47;;;15.50;99.90;;;;;;5070815;28;20158;-43
2022/10/18 07:12:34;;;;;;;54.45;28.98;;;15.40;99.90;;;;;;5070519;28;20054;-45
2022/10/18 07:15:00;;;;;;;53.67;30.98;;;15.40;99.90;;;;;;5070939;28;20244;-45
2022/10/18 07:17:25;;;;;;;58.20;32.83;;;15.50;99.90;;;;;;5071021;28;20023;-44
2022/10/18 07:19:51;;;;;;;49.95;29.75;;;15.40;99.90;;;;;;5070998;28;20121;-47
2022/10/18 07:22:16;;;;;;;53.17;30.45;;;15.40;99.90;;;;;;5070757;28;20174;-42
2022/10/18 07:24:42;;;;;;;51.42;31.50;;;15.40;99.90;;;;;;5071268;28;20032;-44
2022/10/18 07:27:07;;;;;;;53.75;30.00;;;15.40;99.90;;;;;;5071256;28;20286;-44
2022/10/18 07:29:33;;;;;;;63.83;36.30;;;15.40;99.90;;;;;;5071197;28;20070;-48
2022/10/18 07:31:59;;;;;;;70.28;38.42;;;15.40;99.90;;;;;;5069337;28;20507;-46
2022/10/18 07:34:24;;;;;;;67.88;36.35;;;15.40;99.90;;;;;;5075289;28;20386;-44
2022/10/18 07:36:50;;;;;;;53.67;31.65;;;15.40;99.90;;;;;;5087867;28;20055;-46
2022/10/18 07:39:15;;;;;;;64.05;34.67;;;15.40;99.90;;;;;;5090994;28;20020;-45
2022/10/18 07:41:41;;;;;;;55.63;33.15;;;15.40;99.90;;;;;;5089209;28;20073;-46
2022/10/18 07:44:06;;;;;;;59.47;33.58;;;15.40;99.90;;;;;;5090892;28;20290;-45
2022/10/18 07:46:32;;;;;;;69.53;36.83;;;15.40;99.90;;;;;;5090829;28;20020;-44
2022/10/18 07:48:58;;;;;;;59.67;32.15;;;15.30;99.90;;;;;;5089614;28;20052;-43
2022/10/18 07:51:24;;;;;;;69.35;38.65;;;15.40;99.90;;;;;;5090424;28;20016;-47
2022/10/18 07:53:50;;;;;;;64.15;37.45;;;15.40;99.90;;;;;;5090794;28;20078;-47
2022/10/18 07:56:19;;;;;;;65.97;35.65;;;15.40;99.90;;;;;;5090776;28;20024;-44
2022/10/18 07:58:47;;;;;;;61.25;33.17;;;15.40;99.90;;;;;;5091153;28;20028;-43
2022/10/18 08:01:14;;;;;;;56.63;31.27;;;15.40;99.90;;;;;;5090338;28;20031;-44
2022/10/18 08:03:40;;;;;;;56.08;32.72;;;15.40;99.90;;;;;;5090659;28;20069;-44
2022/10/18 08:06:08;;;;;;;69.68;37.22;;;15.40;99.90;;;;;;5089356;28;20056;-45
2022/10/18 08:08:35;;;;;;;51.65;29.38;;;15.40;99.90;;;;;;5090560;28;20031;-44
2022/10/18 08:11:13;;;;;;;71.40;39.40;;;15.50;99.90;;;;;;5090574;28;20024;-47
2022/10/18 08:13:39;;;;;;;56.20;31.73;;;15.50;99.90;;;;;;5090853;28;20028;-45
2022/10/18 08:16:07;;;;;;;65.38;36.33;;;15.60;99.90;;;;;;5090908;28;20390;-43
2022/10/18 08:18:34;;;;;;;63.17;33.13;;;15.60;99.90;;;;;;5090811;28;20039;-43
2022/10/18 08:21:00;;;;;;;57.70;32.17;;;15.70;99.90;;;;;;5090520;28;20046;-43
2022/10/18 08:23:26;;;;;;;51.45;30.33;;;15.70;99.90;;;;;;5088923;28;20028;-43
2022/10/18 08:25:51;;;;;;;66.95;35.63;;;15.70;99.90;;;;;;5090639;28;20481;-45
2022/10/18 08:28:17;;;;;;;56.92;32.80;;;15.70;99.90;;;;;;5090648;28;20073;-45
2022/10/18 08:30:42;;;;;;;62.15;35.95;;;15.80;99.90;;;;;;5089398;28;20040;-44
2022/10/18 08:33:08;;;;;;;55.35;32.05;;;15.70;99.90;;;;;;5090217;28;20091;-44
2022/10/18 08:35:34;;;;;;;55.15;33.75;;;15.80;99.90;;;;;;5089307;28;20077;-48
2022/10/18 08:37:59;;;;;;;53.78;32.88;;;15.80;99.90;;;;;;5090488;28;20068;-48
2022/10/18 08:40:26;;;;;;;54.17;33.28;;;15.80;99.90;;;;;;5090485;28;20020;-51
2022/10/18 08:43:14;;;;;;;66.22;37.55;;;15.80;99.90;;;;;;5090059;28;20025;-51
2022/10/18 08:45:40;;;;;;;77.25;41.40;;;15.80;99.90;;;;;;5090439;28;20032;-48
2022/10/18 08:48:13;;;;;;;61.88;37.80;;;15.70;99.90;;;;;;5093401;28;20013;-51
2022/10/18 08:50:39;;;;;;;62.30;34.47;;;15.70;99.90;;;;;;5093311;28;20024;-48
2022/10/18 08:53:19;;;;;;;56.22;32.83;;;15.70;99.90;;;;;;5092592;28;20469;-48
2022/10/18 08:56:04;;;;;;;55.38;33.15;;;15.70;99.90;;;;;;5094593;28;20040;-48
2022/10/18 08:58:32;;;;;;;65.60;36.17;;;15.80;99.90;;;;;;5094166;28;20228;-48
2022/10/18 09:01:21;;;;;;;71.97;38.88;;;15.80;99.90;;;;;;5093988;28;20028;-47
2022/10/18 09:04:20;;;;;;;56.85;33.88;;;15.80;99.90;;;;;;5093929;28;20031;-49
2022/10/18 09:06:53;;;;;;;48.92;28.23;;;15.90;99.90;;;;;;5093934;28;20062;-48
2022/10/18 09:09:24;;;;;;;52.05;29.80;;;15.90;99.90;;;;;;5093912;28;20377;-48
2022/10/18 09:12:19;;;;;;;51.35;29.08;;;16.00;99.90;;;;;;5093702;28;20020;-48
2022/10/18 09:15:00;;;;;;;65.22;35.13;;;16.00;99.90;;;;;;5092916;28;20377;-48
2022/10/18 09:17:53;;;;;;;54.38;31.35;;;16.00;99.90;;;;;;5092629;28;20027;-49
2022/10/18 09:20:21;;;;;;;54.30;31.98;;;16.00;99.90;;;;;;5092536;28;20296;-50
2022/10/18 09:22:46;;;;;;;50.25;29.08;;;16.10;99.90;;;;;;5093342;28;20024;-50
2022/10/18 09:25:20;;;;;;;49.88;30.02;;;16.10;99.90;;;;;;5093470;28;20028;-50
2022/10/18 09:28:03;;;;;;;51.67;30.35;;;16.20;99.90;;;;;;5093968;28;20027;-49
2022/10/18 09:30:56;;;;;;;48.33;29.73;;;16.30;99.90;;;;;;5093472;28;20107;-49
2022/10/18 09:33:41;;;;;;;43.95;27.77;;;16.40;99.90;;;;;;5084510;28;20473;-48
2022/10/18 09:36:13;;;;;;;45.92;27.45;;;16.50;99.90;;;;;;5093345;28;20103;-50
2022/10/18 09:38:51;;;;;;;53.22;30.83;;;16.60;99.90;;;;;;5093285;28;20573;-51
2022/10/18 09:41:31;;;;;;;48.00;27.95;;;16.70;99.90;;;;;;5093084;28;20032;-49
2022/10/18 09:44:20;;;;;;;44.63;28.60;;;16.80;99.90;;;;;;5093295;28;20032;-52
2022/10/18 09:46:52;;;;;;;43.58;27.73;;;16.90;99.90;;;;;;5093109;28;20115;-48
2022/10/18 09:49:23;;;;;;;44.65;28.42;;;16.90;99.90;;;;;;5091191;28;20031;-50
2022/10/18 09:51:50;;;;;;;37.05;24.45;;;16.90;99.90;;;;;;5092647;28;20024;-51
2022/10/18 09:54:52;;;;;;;37.42;25.23;;;16.90;99.90;;;;;;5093051;28;20149;-48
2022/10/18 09:57:25;;;;;;;33.97;21.83;;;16.90;99.90;;;;;;5029704;28;20025;-51
2022/10/18 09:59:50;;;;;;;35.78;24.98;;;17.00;99.90;;;;;;5083404;28;20036;-48
2022/10/18 10:02:21;;;;;;;43.10;25.17;;;16.90;99.90;;;;;;5092363;28;20397;-48
2022/10/18 10:04:53;;;;;;;32.10;21.38;;;16.90;99.90;;;;;;5092757;28;20063;-48
2022/10/18 10:07:20;;;;;;;32.13;21.08;;;16.90;99.90;;;;;;5092853;28;20023;-48
2022/10/18 10:09:57;;;;;;;38.80;24.35;;;17.00;99.90;;;;;;5092730;28;20081;-48
2022/10/18 10:12:36;;;;;;;38.65;24.77;;;17.00;99.90;;;;;;5092500;28;20026;-51
2022/10/18 10:15:26;;;;;;;39.58;26.88;;;17.00;99.90;;;;;;5092676;28;20106;-48
2022/10/18 10:18:02;;;;;;;40.95;25.23;;;17.00;99.90;;;;;;5092679;28;20065;-48
2022/10/18 10:20:33;;;;;;;45.60;27.33;;;17.10;99.90;;;;;;5092746;28;20110;-51
2022/10/18 10:23:13;;;;;;;44.38;27.70;;;17.10;99.90;;;;;;5092224;28;20031;-51
2022/10/18 10:25:41;;;;;;;39.20;26.52;;;17.20;99.90;;;;;;5092363;28;20028;-52
2022/10/18 10:28:14;;;;;;;42.35;27.15;;;17.30;99.90;;;;;;5092258;28;20024;-48
2022/10/18 10:30:40;;;;;;;34.70;24.13;;;17.40;99.90;;;;;;5092223;28;20035;-50
2022/10/18 10:33:25;;;;;;;46.03;28.58;;;17.50;99.90;;;;;;5091987;28;20020;-49
2022/10/18 10:35:58;;;;;;;38.22;25.13;;;17.50;99.90;;;;;;5091963;28;20031;-50
2022/10/18 10:38:25;;;;;;;42.20;25.02;;;17.40;99.90;;;;;;5092296;28;20078;-48
2022/10/18 10:40:52;;;;;;;42.30;26.48;;;17.40;99.90;;;;;;5092091;28;20074;-49
2022/10/18 10:43:37;;;;;;;38.28;24.90;;;17.40;99.90;;;;;;5091972;28;20035;-48
2022/10/18 10:46:08;;;;;;;40.47;25.25;;;17.40;99.90;;;;;;5090599;28;20077;-48
2022/10/18 10:48:47;;;;;;;39.28;26.83;;;17.40;99.90;;;;;;5091014;28;20085;-48
2022/10/18 10:51:14;;;;;;;39.80;25.10;;;17.30;99.90;;;;;;5073582;28;20028;-48
2022/10/18 10:53:59;;;;;;;35.05;22.73;;;17.40;99.90;;;;;;5090308;28;20020;-48
2022/10/18 10:56:28;;;;;;;39.00;25.30;;;17.50;99.90;;;;;;5091697;28;20043;-48
2022/10/18 10:58:59;;;;;;;39.03;24.95;;;17.60;99.90;;;;;;5090330;28;20028;-49
2022/10/18 11:01:27;;;;;;;41.90;24.75;;;17.60;99.90;;;;;;5091285;28;20100;-48
2022/10/18 11:04:02;;;;;;;38.03;23.77;;;17.80;99.90;;;;;;5091598;28;20044;-49
2022/10/18 11:06:39;;;;;;;34.20;22.60;;;18.60;99.90;;;;;;5092030;28;20434;-50
2022/10/18 11:09:18;;;;;;;22.77;16.13;;;19.50;99.90;;;;;;5091199;28;20024;-51
2022/10/18 11:12:18;;;;;;;25.50;16.38;;;20.50;99.90;;;;;;5091347;28;20035;-49
2022/10/18 11:14:48;;;;;;;23.27;16.40;;;21.80;99.90;;;;;;5083126;28;20378;-50
2022/10/18 11:17:33;;;;;;;24.98;17.48;;;22.80;99.90;;;;;;5090248;28;20501;-51
2022/10/18 11:20:10;;;;;;;21.98;15.73;;;23.00;99.90;;;;;;5091520;28;20270;-49
2022/10/18 11:22:56;;;;;;;19.75;15.75;;;23.10;99.90;;;;;;5090996;28;20016;-49
2022/10/18 11:25:26;;;;;;;23.67;17.17;;;22.50;99.90;;;;;;5091281;28;20030;-51
2022/10/18 11:28:09;;;;;;;19.50;14.18;;;22.60;99.90;;;;;;5091418;28;20024;-49
2022/10/18 11:31:13;;;;;;;17.33;12.25;;;23.20;99.90;;;;;;5091233;28;20489;-50
2022/10/18 11:34:06;;;;;;;22.60;12.00;;;24.30;99.90;;;;;;5091129;28;20066;-50
2022/10/18 11:36:49;;;;;;;15.85;10.88;;;24.50;99.90;;;;;;5091060;28;20439;-51
2022/10/18 11:39:53;;;;;;;14.40;8.82;;;24.70;98.00;;;;;;5091240;28;20032;-48
2022/10/18 11:42:45;;;;;;;17.33;11.10;;;24.60;98.40;;;;;;5089275;28;20031;-48
2022/10/18 11:45:27;;;;;;;18.05;11.50;;;24.10;98.20;;;;;;5091118;28;20031;-49
2022/10/18 11:47:56;;;;;;;14.85;10.70;;;23.30;99.90;;;;;;5091046;28;20607;-49
2022/10/18 11:50:50;;;;;;;15.63;10.70;;;23.70;99.90;;;;;;5088462;28;20024;-49
2022/10/18 11:53:30;;;;;;;19.08;12.05;;;23.50;99.40;;;;;;5090503;28;20035;-48
2022/10/18 11:56:24;;;;;;;14.07;10.63;;;23.40;99.90;;;;;;5090958;28;20027;-49
2022/10/18 11:59:09;;;;;;;15.43;10.80;;;23.80;99.90;;;;;;5090714;28;20031;-49
2022/10/18 12:02:09;;;;;;;16.00;10.18;;;24.50;99.80;;;;;;5090440;28;20108;-49
2022/10/18 12:04:40;;;;;;;12.30;7.97;;;24.60;97.60;;;;;;5090590;28;20401;-52
2022/10/18 12:07:09;;;;;;;9.82;5.75;;;25.30;98.90;;;;;;5090664;28;20048;-49
2022/10/18 12:09:42;;;;;;;14.50;5.90;;;25.40;96.00;;;;;;5089668;28;20095;-51
2022/10/18 12:12:16;;;;;;;9.23;4.97;;;25.00;94.70;;;;;;5090195;28;20023;-52
2022/10/18 12:14:49;;;;;;;9.60;5.60;;;24.90;94.50;;;;;;5090602;28;20035;-49
2022/10/18 12:17:30;;;;;;;12.02;5.18;;;24.80;95.20;;;;;;5090558;28;20489;-51
2022/10/18 12:20:01;;;;;;;8.32;4.57;;;24.70;97.00;;;;;;5090561;28;20043;-49
2022/10/18 12:22:38;;;;;;;15.20;5.43;;;24.80;95.80;;;;;;5093647;28;20485;-49
2022/10/18 12:25:08;;;;;;;12.32;6.15;;;24.80;95.50;;;;;;5094588;28;20067;-51
2022/10/18 12:27:45;;;;;;;;;;;24.30;94.30;;;;;;5095161;28;20024;-50
2022/10/18 12:30:24;;;;;;;13.27;5.50;;;24.00;96.20;;;;;;5094583;28;19965;-49
2022/10/18 12:32:52;;;;;;;14.73;6.15;;;23.80;96.10;;;;;;5094172;28;20020;-48
2022/10/18 12:35:19;;;;;;;10.73;6.00;;;23.50;96.50;;;;;;5094517;28;20035;-48
2022/10/18 12:37:56;;;;;;;10.57;5.35;;;23.20;96.30;;;;;;5093226;28;20039;-51
2022/10/18 12:40:37;;;;;;;11.52;5.53;;;23.10;97.40;;;;;;5094633;28;20028;-48
2022/10/18 12:43:06;;;;;;;;;;;23.20;98.80;;;;;;5094691;28;20024;-50
2022/10/18 12:45:34;;;;;;;14.68;5.25;;;23.00;98.00;;;;;;5094428;28;20380;-49